• Join FlightAware (Why Join?)
  • Login
  • US Flag 
Rudolph Flight #1: Arrived! 
11:00PM EST


 

Airport Tracker/Info


-or-


 

Live Flight TrackerFlight Track Log ✈ N57HC ✈ 07-Mar-2014 ✈ KTEB - KPBI

Flight Track Log - Related Links

Times and Time Zones

All times are in EST time to prevent confusion due to time zone crossing. See the N57HC flight status page for this flight to view local times or setup timezone preferences in your user account.

Time Position Orientation Groundspeed Altitude Reporting Facility
EST Latitude Longitude Course Direction KTS MPH feet Rate Location/Type
02:36PM 40.8833 -74.0500 346° North 186 214 1,700  Level New York TRACON
02:37PM 40.9333 -74.0667 346° North 239 275 3,000 600 Climbing New York TRACON
02:38PM 40.9167 -74.1500 255° West 260 299 3,000 1,440 Level New York TRACON
02:39PM 40.8667 -74.2000 217° Southwest 240 276 5,900 1,440 Climbing New York TRACON
02:45PM 40.5192 -74.4459 217° Southwest 12,800 1,260 Climbing FlightAware ADS-B (KPVU)
02:47PM 40.3941 -74.2774 147° Southeast 302 348 16,800 1,200 Climbing FlightAware ADS-B (KPVU)
02:48PM 40.3442 -74.2349 147° Southeast 338 389 16,800  Level FlightAware ADS-B (KPVU)
02:49PM 40.2415 -74.1936 188° South 329 379 16,900 780 Climbing FlightAware ADS-B (KPVU)
02:50PM 40.1854 -74.2067 191° South 296 341 18,300 1,680 Climbing FlightAware ADS-B (KPVU)
02:51PM 40.1170 -74.2238 190° South 286 329 19,500 2,220 Climbing FlightAware ADS-B (KPVU)
02:52PM 40.0460 -74.2403 190° South 286 329 22,300 2,100 Climbing FlightAware ADS-B (KPVU)
02:52PM 40.0008 -74.2548 207° Southwest 273 314 22,800 1,680 Climbing FlightAware ADS-B (KPVU)
02:53PM 39.9564 -74.2949 218° Southwest 273 314 24,600 1,860 Climbing FlightAware ADS-B (KPVU)
02:54PM 39.8937 -74.3572 217° Southwest 279 321 26,100 1,740 Climbing FlightAware ADS-B (KPVU)
02:54PM 39.8598 -74.3897 216° Southwest 280 322 27,400 1,980 Climbing FlightAware ADS-B (KPVU)
02:55PM 39.8183 -74.4298 219° Southwest 280 322 28,500 1,740 Climbing FlightAware ADS-B (KPVU)
02:56PM 39.7832 -74.4727 222° Southwest 278 320 29,700 1,500 Climbing FlightAware ADS-B (KPVU)
02:56PM 39.7470 -74.5033 210° Southwest 284 327 30,300 1,260 Climbing FlightAware ADS-B (KPVU)
02:57PM 39.7102 -74.5300 210° Southwest 278 320 31,100 1,740 Climbing FlightAware ADS-B (KWWD)
02:57PM 39.6746 -74.5555 209° Southwest 281 323 32,200 2,160 Climbing FlightAware ADS-B (KWWD)
02:58PM 39.6410 -74.5797 209° Southwest 274 315 33,300 2,160 Climbing FlightAware ADS-B (KWWD)
02:58PM 39.6072 -74.6042 209° Southwest 261 300 34,400 1,500 Climbing FlightAware ADS-B (KWWD)
02:59PM 39.5654 -74.6343 210° Southwest 258 297 35,100 1,200 Climbing FlightAware ADS-B (KWWD)
03:00PM 39.5230 -74.6652 210° Southwest 258 297 36,000 1,020 Climbing FlightAware ADS-B (KWWD)
03:00PM 39.4824 -74.6948 210° Southwest 262 302 36,500 840 Climbing FlightAware ADS-B (KWWD)
03:01PM 39.4487 -74.7196 210° Southwest 264 304 37,000 840 Climbing FlightAware ADS-B (KWWD)
03:01PM 39.4233 -74.7381 211° Southwest 259 298 37,300 660 Climbing FlightAware ADS-B (KWWD)
03:02PM 39.3768 -74.7722 210° Southwest 261 300 37,800 780 Climbing FlightAware ADS-B (KWWD)
03:03PM 39.3421 -74.7975 210° Southwest 263 303 38,300 840 Climbing FlightAware ADS-B (KWWD)
03:04PM 39.2414 -74.8708 210° Southwest 259 298 39,700 960 Climbing FlightAware ADS-B (KPVU)
03:05PM 39.2441 -74.8688 209° Southwest 253 291 41,000 660 Climbing FlightAware ADS-B
03:06PM 39.1100 -74.9655 209° Southwest 256 295 41,100 300 Climbing FlightAware ADS-B
03:07PM 39.0433 -75.0137 209° Southwest 262 302 41,600 480 Climbing FlightAware ADS-B
03:08PM 39.0516 -75.0077 210° Southwest 256 295 42,000 600 Climbing FlightAware ADS-B
03:08PM 39.0516 -75.0077 209° Southwest 262 302 42,200 600 Climbing FlightAware ADS-B
03:09PM 38.9129 -75.1074 209° Southwest 262 302 42,900 300 Climbing FlightAware ADS-B (KWWD)
03:11PM 38.8093 -75.1816 210° Southwest 276 318 43,000  Climbing FlightAware ADS-B (KWWD)
03:12PM 38.7444 -75.2278 210° Southwest 284 327 43,000  Level FlightAware ADS-B (KWWD)
03:12PM 38.7042 -75.2563 209° Southwest 294 338 43,000  Level FlightAware ADS-B (KWWD)
03:14PM 38.5959 -75.3329 210° Southwest 294 338 43,000  Level FlightAware ADS-B (KWWD)
03:14PM 38.5507 -75.3649 209° Southwest 316 364 43,000  Level FlightAware ADS-B (KWWD)
03:15PM 38.5005 -75.4003 210° Southwest 314 361 43,000  Level FlightAware ADS-B (KWWD)
03:16PM 38.4546 -75.4327 210° Southwest 318 366 43,000  Level FlightAware ADS-B (KWWD)
03:16PM 38.4046 -75.4678 210° Southwest 320 368 43,000  Level FlightAware ADS-B (KWWD)
03:17PM 38.3624 -75.4975 209° Southwest 328 377 43,000  Level FlightAware ADS-B (KWWD)
03:17PM 38.3222 -75.5249 207° Southwest 329 379 43,000  Level FlightAware ADS-B (KWWD)
03:18PM 38.2678 -75.5587 207° Southwest 323 372 43,000  Level FlightAware ADS-B (KWWD)
03:19PM 38.2254 -75.5849 207° Southwest 325 374 43,000  Level FlightAware ADS-B (KWWD)
03:19PM 38.1834 -75.6111 207° Southwest 325 374 43,000  Level FlightAware ADS-B (KWWD)
03:20PM 38.1380 -75.6395 207° Southwest 325 374 43,000  Level FlightAware ADS-B (KWWD)
03:20PM 38.0889 -75.6701 207° Southwest 326 375 43,000  Level FlightAware ADS-B (KWWD)
03:21PM 38.0354 -75.7034 207° Southwest 326 375 43,000  Level FlightAware ADS-B (KWWD)
03:21PM 37.9909 -75.7311 207° Southwest 326 375 43,000  Level FlightAware ADS-B (KWWD)
03:22PM 37.8979 -75.7867 206° Southwest 327 376 43,000  Level FlightAware ADS-B (KWWD)
03:24PM 37.7828 -75.8467 206° Southwest 336 387 43,000  Level Washington Center
03:25PM 37.7078 -75.8911 205° Southwest 336 387 43,000  Level Washington Center
03:26PM 37.6242 -75.9381 204° Southwest 336 387 43,000 540 Level Washington Center
03:27PM 37.5406 -75.9769 200° South 336 387 44,100 780 Climbing Washington Center
03:28PM 37.4653 -76.0156 202° Southwest 324 373 44,600 420 Climbing Washington Center
03:29PM 37.3903 -76.0544 202° Southwest 307 353 45,000 180 Climbing Washington Center
03:30PM 37.3169 -76.0933 203° Southwest 294 338 45,000  Level Washington Center
03:31PM 37.2397 -76.1319 202° Southwest 294 338 45,000  Level Washington Center
03:32PM 37.1497 -76.1731 200° South 305 351 45,000  Level Washington Center
03:33PM 37.0725 -76.2142 203° Southwest 310 357 45,000  Level Washington Center
03:34PM 36.9928 -76.2550 202° Southwest 315 362 45,000  Level Washington Center
03:35PM 36.9133 -76.2958 202° Southwest 315 362 45,000  Level Washington Center
03:36PM 36.8317 -76.3367 202° Southwest 315 362 45,000  Level Washington Center
03:37PM 36.7503 -76.3775 202° Southwest 315 362 45,000  Level Washington Center
03:38PM 36.6706 -76.4231 205° Southwest 315 362 45,000  Level Washington Center
03:39PM 36.5889 -76.4636 202° Southwest 315 362 45,000  Level Washington Center
03:40PM 36.5072 -76.5042 202° Southwest 315 362 45,000  Level Washington Center
03:41PM 36.4236 -76.5419 200° South 315 362 45,000  Level Washington Center
03:42PM 36.3378 -76.5769 198° South 315 362 45,000  Level Washington Center
03:43PM 36.2519 -76.6094 197° South 320 368 45,000  Level Washington Center
03:44PM 36.1681 -76.6417 197° South 320 368 45,000  Level Washington Center
03:45PM 36.0822 -76.6767 198° South 328 377 45,000  Level Washington Center
03:46PM 35.9964 -76.7114 198° South 323 372 45,000  Level Washington Center
03:47PM 35.9086 -76.7433 196° South 323 372 45,000  Level Washington Center
03:48PM 35.8247 -76.7756 197° South 328 377 45,000  Level Washington Center
03:49PM 35.7389 -76.8100 198° South 323 372 45,000  Level Washington Center
03:50PM 35.6531 -76.8447 198° South 328 377 45,000  Level Washington Center
03:51PM 35.5817 -76.8717 197° South 311 358 45,000  Level Washington Center
03:52PM 35.4936 -76.9058 198° South 316 364 45,000  Level Washington Center
03:53PM 35.4097 -76.9403 199° South 316 364 45,000  Level Washington Center
03:54PM 35.3239 -76.9719 197° South 322 371 45,000  Level Washington Center
03:55PM 35.2400 -77.0061 198° South 322 371 45,000  Level Washington Center
03:56PM 35.1561 -77.0375 197° South 327 376 45,000  Level Washington Center
03:57PM 35.0725 -77.0692 197° South 327 376 45,000  Level Washington Center
03:58PM 34.9886 -77.1056 200° South 322 371 45,000  Level Washington Center
03:59PM 34.8919 -77.1392 196° South 328 377 45,000  Level Washington Center
04:00PM 34.8186 -77.1708 200° South 322 371 45,000  Level Washington Center
04:01PM 34.7347 -77.2019 197° South 322 371 45,000  Level Washington Center
04:02PM 34.6467 -77.2356 197° South 322 371 45,000  Level Washington Center
04:03PM 34.5608 -77.2667 197° South 329 379 45,000  Level Washington Center
04:04PM 34.4725 -77.3000 197° South 329 379 45,000  Level Washington Center
04:05PM 34.3886 -77.3336 198° South 324 373 45,000  Level Washington Center
04:06PM 34.3006 -77.3669 197° South 324 373 45,000  Level Washington Center
04:07PM 34.2167 -77.3953 196° South 324 373 45,000  Level Washington Center
04:08PM 34.1106 -77.4353 197° South 319 367 45,000  Level Jacksonville Center
04:09PM 34.0264 -77.4681 198° South 319 367 45,000  Level Jacksonville Center
04:10PM 33.9442 -77.4981 197° South 319 367 45,000  Level Jacksonville Center
04:11PM 33.8600 -77.5283 197° South 319 367 45,000  Level Jacksonville Center
04:12PM 33.7761 -77.5633 199° South 319 367 45,000  Level Jacksonville Center
04:13PM 33.6917 -77.5936 197° South 319 367 45,000  Level Jacksonville Center
04:14PM 33.6075 -77.6236 197° South 319 367 45,000  Level Jacksonville Center
04:15PM 33.5253 -77.6533 197° South 319 367 45,000  Level Jacksonville Center
04:16PM 33.4411 -77.6858 198° South 319 367 45,000  Level Jacksonville Center
04:17PM 33.3567 -77.7181 198° South 319 367 45,000 -180 Level Jacksonville Center
04:18PM 33.2725 -77.7503 198° South 319 367 44,700 -420 Descending Jacksonville Center
04:19PM 33.1883 -77.7797 196° South 319 367 44,200 -540 Descending Jacksonville Center
04:20PM 33.0997 -77.8122 197° South 319 367 43,700 -600 Descending Jacksonville Center
04:21PM 33.0092 -77.8444 197° South 324 373 43,000 -360 Descending Jacksonville Center
04:22PM 32.9228 -77.8767 197° South 329 379 43,000  Level Jacksonville Center
04:23PM 32.8344 -77.9086 197° South 334 384 43,000  Level Jacksonville Center
04:24PM 32.7458 -77.9408 197° South 334 384 43,000  Level Jacksonville Center
04:25PM 32.6597 -77.9750 198° South 334 384 43,000  Level Jacksonville Center
04:26PM 32.5753 -78.0044 196° South 334 384 43,000  Level Jacksonville Center
04:27PM 32.4864 -78.0314 194° South 334 384 43,000  Level Jacksonville Center
04:28PM 32.4000 -78.0631 197° South 334 384 43,000  Level Jacksonville Center
04:29PM 32.3178 -78.0944 198° South 329 379 43,000  Level Jacksonville Center
04:30PM 32.2314 -78.1258 197° South 324 373 43,000  Level Jacksonville Center
04:31PM 32.1492 -78.1597 199° South 319 367 43,000  Level Jacksonville Center
04:32PM 32.0625 -78.1886 196° South 319 367 43,000  Level Jacksonville Center
04:33PM 31.9781 -78.2175 196° South 319 367 43,000  Level Jacksonville Center
04:34PM 31.9081 -78.2456 199° South 319 367 43,000  Level Jacksonville Center
04:35PM 31.8133 -78.2794 197° South 324 373 43,000  Level Jacksonville Center
04:36PM 31.7289 -78.3106 197° South 317 365 43,000  Level Jacksonville Center
04:37PM 31.6422 -78.3442 198° South 322 371 43,000  Level Jacksonville Center
04:38PM 31.5597 -78.3703 195° South 322 371 43,000  Level Jacksonville Center
04:39PM 31.4753 -78.4011 197° South 322 371 43,000  Level Jacksonville Center
04:40PM 31.3886 -78.4319 197° South 322 371 43,000  Level Jacksonville Center
04:41PM 31.3042 -78.4603 196° South 317 365 43,000  Level Jacksonville Center
04:42PM 31.2175 -78.4936 198° South 322 371 43,000  Level Jacksonville Center
04:43PM 31.1311 -78.5242 197° South 322 371 43,000  Level Jacksonville Center
04:44PM 31.0422 -78.5575 198° South 322 371 43,000  Level Jacksonville Center
04:45PM 30.9578 -78.5831 195° South 322 371 43,000  Level Jacksonville Center
04:46PM 30.8711 -78.6136 197° South 322 371 43,000  Level Jacksonville Center
04:49PM 30.6081 -78.7061 197° South 326 375 43,000  Level Miami Center
04:50PM 30.5222 -78.7383 198° South 331 381 43,000  Level Miami Center
04:51PM 30.4344 -78.7681 196° South 326 375 43,000  Level Miami Center
04:52PM 30.3444 -78.7975 196° South 332 382 43,000  Level Miami Center
04:53PM 30.2503 -78.8175 190° South 338 389 43,000  Level Miami Center
04:54PM 30.1583 -78.8375 191° South 351 404 43,000  Level Miami Center
04:55PM 30.0578 -78.8594 191° South 344 396 43,000 -360 Level Miami Center
04:56PM 29.9678 -78.8914 197° South 350 403 42,300 -1,200 Descending Miami Center
04:57PM 29.8592 -78.9083 188° South 364 419 40,700 -1,560 Descending Miami Center
04:58PM 29.7567 -78.9256 188° South 370 426 39,200 -1,440 Descending Miami Center
04:59PM 29.6686 -78.9525 195° South 361 415 37,800 -1,440 Descending Miami Center
05:00PM 29.5786 -78.9772 193° South 361 415 36,400 -1,320 Descending Miami Center
05:01PM 29.4867 -78.9992 192° South 346 398 35,300 -1,320 Descending Miami Center
05:02PM 29.3986 -79.0211 192° South 338 389 33,800 -1,500 Descending Miami Center
05:03PM 29.3064 -79.0456 193° South 338 389 32,300 -1,500 Descending Miami Center
05:04PM 29.2061 -79.0628 189° South 345 397 30,800 -1,380 Descending Miami Center
05:05PM 29.1308 -79.0803 191° South 350 403 29,600 -1,500 Descending Miami Center
05:06PM 29.0114 -79.1061 191° South 357 411 27,900 -1,500 Descending Miami Center
05:07PM 28.9128 -79.1303 192° South 369 425 26,600 -1,500 Descending Miami Center
05:08PM 28.8144 -79.1497 190° South 364 419 25,000 -1,320 Descending Miami Center
05:09PM 28.7225 -79.1692 191° South 353 406 24,000 -540 Descending Miami Center
05:10PM 28.6239 -79.1906 191° South 353 406 24,000  Level Miami Center
05:11PM 28.5297 -79.2100 190° South 358 412 24,000  Level Miami Center
05:12PM 28.4356 -79.2317 191° South 352 405 24,000  Level Miami Center
05:13PM 28.3392 -79.2531 191° South 357 411 24,000  Level Miami Center
05:14PM 28.2364 -79.2744 190° South 357 411 24,000 -660 Level Miami Center
05:19PM 27.7455 -79.4252 215° Southwest 304 350 20,100 -840 Descending FlightAware ADS-B (KMCO)
05:20PM 27.7031 -79.4576 214° Southwest 307 353 19,200 -1,500 Descending FlightAware ADS-B (KMCO)
05:21PM 27.6518 -79.4963 214° Southwest 315 362 18,100 -1,620 Descending FlightAware ADS-B (KMCO)
05:22PM 27.5300 -79.5874 214° Southwest 309 356 15,400 -1,500 Descending FlightAware ADS-B (KMCO)
05:23PM 27.4975 -79.6172 214° Southwest 319 367 14,900 -1,320 Descending Miami Center
05:24PM 27.4278 -79.6669 212° Southwest 308 354 13,400 -1,560 Descending Miami Center
05:25PM 27.3642 -79.7144 214° Southwest 310 357 11,900 -1,500 Descending Miami Center
05:26PM 27.2961 -79.7667 214° Southwest 310 357 10,400 -1,620 Descending Miami Center
05:27PM 27.2242 -79.8161 211° Southwest 299 344 8,700 -1,200 Descending Miami Center
05:28PM 27.1606 -79.8658 215° Southwest 289 333 8,000 -420 Descending Miami Center
05:29PM 27.0931 -79.9014 205° Southwest 278 320 7,900 -900 Descending Miami Center
05:30PM 27.0242 -79.8950 175° South 266 306 6,300 -1,560 Descending Miami Center
05:31PM 26.9450 -79.8931 179° South 289 333 4,800 -1,200 Descending Miami Center
05:32PM 26.8636 -79.8908 179° South 277 319 4,000 -900 Descending Miami Center
05:33PM 26.8092 -79.8964 185° South 265 305 3,100 -900 Descending Miami Center
05:35PM 26.7320 -80.0185 265° West  Level Estimated
05:42PM 26.6832 -80.0956 110° East  Level Estimated
05:43PM 26.6832 -80.0956 110° East  Level Estimated
05:44PM 26.6832 -80.0956 110° East  Level Estimated
05:45PM 26.6832 -80.0956 110° East  Level Estimated
05:46PM 26.6832 -80.0956 110° East  Level Estimated
05:47PM 26.6832 -80.0956 110° East  Level Estimated